Time;durP1;ratioP1;P1;durP2;ratioP2;P2;SDS_P1;SDS_P2;PMS_P1;PMS_P2;Temp;Humidity;BMP_temperature;BMP_pressure;BME280_temperature;BME280_humidity;BME280_pressure;Samples;Min_cycle;Max_cycle;Signal;HPM_P1;HPM_P2
2022/10/11 00:01:12;;;;;;;15.57;2.80;;;;;;;;;;5050330;28;20460;-72
2022/10/11 00:03:38;;;;;;;15.93;2.70;;;;;;;;;;5050565;28;20080;-71
2022/10/11 00:06:04;;;;;;;16.63;2.88;;;;;;;;;;5052423;28;20087;-72
2022/10/11 00:08:31;;;;;;;20.13;3.20;;;;;;;;;;5041982;28;20045;-72
2022/10/11 00:11:01;;;;;;;18.05;2.95;;;;;;;;;;5046322;28;20037;-72
2022/10/11 00:13:28;;;;;;;19.67;3.33;;;;;;;;;;5050201;28;20044;-72
2022/10/11 00:15:54;;;;;;;17.63;2.78;;;;;;;;;;5048477;28;20041;-72
2022/10/11 00:18:20;;;;;;;19.33;2.92;;;;;;;;;;5028764;28;20495;-71
2022/10/11 00:20:46;;;;;;;17.27;2.90;;;;;;;;;;5046628;28;20045;-71
2022/10/11 00:23:12;;;;;;;17.08;2.65;;;;;;;;;;5040966;28;20037;-71
2022/10/11 00:25:38;;;;;;;17.95;3.00;;;;;;;;;;5041625;28;20044;-71
2022/10/11 00:28:04;;;;;;;20.08;3.00;;;;;;;;;;5041288;28;20402;-72
2022/10/11 00:30:31;;;;;;;13.75;2.42;;;;;;;;;;5041561;28;20072;-71
2022/10/11 00:32:57;;;;;;;15.63;2.47;;;;;;;;;;5041702;28;20072;-71
2022/10/11 00:35:23;;;;;;;24.98;3.40;;;;;;;;;;5041136;28;20056;-71
2022/10/11 00:37:49;;;;;;;22.55;3.17;;;;;;;;;;5039823;28;20102;-72
2022/10/11 00:40:18;;;;;;;17.50;3.05;;;;;;;;;;5042110;28;20065;-71
2022/10/11 00:42:44;;;;;;;17.92;2.60;;;;;;;;;;5057564;28;20060;-71
2022/10/11 00:45:29;;;;;;;24.33;3.35;;;;;;;;;;5043502;28;20116;-72
2022/10/11 00:47:56;;;;;;;17.05;2.92;;;;;;;;;;5041083;28;20056;-71
2022/10/11 00:50:23;;;;;;;20.83;3.20;;;;;;;;;;5048218;28;20040;-72
2022/10/11 00:53:00;;;;;;;15.32;2.70;;;;;;;;;;5050150;28;20398;-72
2022/10/11 00:55:30;;;;;;;18.73;3.05;;;;;;;;;;5049287;28;20041;-71
2022/10/11 00:57:57;;;;;;;13.95;2.40;;;;;;;;;;5049016;28;20041;-72
2022/10/11 01:00:23;;;;;;;20.77;3.08;;;;;;;;;;5052025;28;20120;-71
2022/10/11 01:02:50;;;;;;;17.55;2.95;;;;;;;;;;5032375;28;20120;-71
2022/10/11 01:05:18;;;;;;;15.43;2.88;;;;;;;;;;5051320;28;20040;-72
2022/10/11 01:07:47;;;;;;;18.00;3.28;;;;;;;;;;5049849;28;20080;-71
2022/10/11 01:10:13;;;;;;;16.48;2.67;;;;;;;;;;5040132;28;20038;-71
2022/10/11 01:12:58;;;;;;;15.75;2.67;;;;;;;;;;5050330;28;20037;-71
2022/10/11 01:15:27;;;;;;;18.33;2.97;;;;;;;;;;5049093;28;20041;-70
2022/10/11 01:17:53;;;;;;;19.38;2.97;;;;;;;;;;5047739;28;20068;-70
2022/10/11 01:20:22;;;;;;;16.15;2.17;;;;;;;;;;5049659;28;20080;-70
2022/10/11 01:23:07;;;;;;;18.88;2.97;;;;;;;;;;5049257;28;20048;-71
2022/10/11 01:26:03;;;;;;;15.70;2.50;;;;;;;;;;5038194;28;20048;-70
2022/10/11 01:28:47;;;;;;;15.27;2.60;;;;;;;;;;5050051;28;20445;-71
2022/10/11 01:31:20;;;;;;;14.95;2.50;;;;;;;;;;5048789;28;20045;-71
2022/10/11 01:33:57;;;;;;;15.32;2.60;;;;;;;;;;5050766;28;20089;-71
2022/10/11 01:36:35;;;;;;;15.98;2.47;;;;;;;;;;5053169;28;20064;-71
2022/10/11 01:39:40;;;;;;;13.77;2.35;;;;;;;;;;5066241;28;20052;-70
2022/10/11 01:42:08;;;;;;;18.90;2.72;;;;;;;;;;4992111;28;20042;-70
2022/10/11 01:44:36;;;;;;;21.98;2.90;;;;;;;;;;4993239;28;20497;-70
2022/10/11 01:47:02;;;;;;;24.45;3.15;;;;;;;;;;4991207;28;20529;-70
2022/10/11 01:49:28;;;;;;;16.27;2.88;;;;;;;;;;4992149;28;20042;-71
2022/10/11 01:51:55;;;;;;;17.90;2.90;;;;;;;;;;4987259;28;20054;-70
2022/10/11 01:54:40;;;;;;;20.80;2.60;;;;;;;;;;4993365;28;20054;-70
2022/10/11 01:57:21;;;;;;;18.52;2.60;;;;;;;;;;4990713;28;20504;-71
2022/10/11 02:00:05;;;;;;;21.58;2.67;;;;;;;;;;4994065;28;20054;-71
2022/10/11 02:02:46;;;;;;;16.27;2.38;;;;;;;;;;4990850;28;20042;-70
2022/10/11 02:05:31;;;;;;;20.52;2.97;;;;;;;;;;4991561;28;20046;-71
2022/10/11 02:08:04;;;;;;;14.65;2.40;;;;;;;;;;4990048;28;20512;-70
2022/10/11 02:10:34;;;;;;;15.90;2.42;;;;;;;;;;4991180;28;20117;-70
2022/10/11 02:13:00;;;;;;;12.45;2.38;;;;;;;;;;5025690;28;20099;-71
2022/10/11 02:15:28;;;;;;;16.50;2.72;;;;;;;;;;5050611;28;20068;-71
2022/10/11 02:17:55;;;;;;;18.92;2.90;;;;;;;;;;5051965;28;20041;-70
2022/10/11 02:20:23;;;;;;;16.50;2.75;;;;;;;;;;5050444;28;20065;-71
2022/10/11 02:22:52;;;;;;;13.18;2.45;;;;;;;;;;5048545;28;20067;-71
2022/10/11 02:25:21;;;;;;;17.30;2.50;;;;;;;;;;5054501;28;20131;-71
2022/10/11 02:27:47;;;;;;;19.77;2.85;;;;;;;;;;5052960;28;20084;-71
2022/10/11 02:30:14;;;;;;;18.83;2.50;;;;;;;;;;5035809;28;20463;-71
2022/10/11 02:32:41;;;;;;;14.65;2.80;;;;;;;;;;5047058;28;20049;-71
2022/10/11 02:35:07;;;;;;;16.00;2.70;;;;;;;;;;5052530;28;20564;-71
2022/10/11 02:37:52;;;;;;;17.48;2.53;;;;;;;;;;5052370;28;20569;-71
2022/10/11 02:40:26;;;;;;;18.75;2.35;;;;;;;;;;5054671;28;20487;-72
2022/10/11 02:43:12;;;;;;;13.35;2.28;;;;;;;;;;5052417;28;20045;-71
2022/10/11 02:45:43;;;;;;;15.70;2.38;;;;;;;;;;5050071;28;20044;-71
2022/10/11 02:48:10;;;;;;;14.40;2.33;;;;;;;;;;5065914;28;20045;-71
2022/10/11 02:50:37;;;;;;;15.45;2.58;;;;;;;;;;5050830;28;20050;-71
2022/10/11 02:53:03;;;;;;;17.77;2.80;;;;;;;;;;5033480;28;20116;-71
2022/10/11 02:55:29;;;;;;;18.02;2.45;;;;;;;;;;5053624;28;20059;-71
2022/10/11 02:57:55;;;;;;;12.27;2.20;;;;;;;;;;5051542;28;20483;-71
2022/10/11 03:00:21;;;;;;;13.15;2.22;;;;;;;;;;5052766;28;20041;-71
2022/10/11 03:02:47;;;;;;;15.88;2.58;;;;;;;;;;5052529;28;20491;-71
2022/10/11 03:05:13;;;;;;;15.02;2.58;;;;;;;;;;5052498;28;20506;-72
2022/10/11 03:07:39;;;;;;;15.50;2.63;;;;;;;;;;5051775;28;20045;-71
2022/10/11 03:10:06;;;;;;;14.68;2.25;;;;;;;;;;5051013;28;20080;-72
2022/10/11 03:12:32;;;;;;;13.05;2.28;;;;;;;;;;5050780;28;20669;-71
2022/10/11 03:14:58;;;;;;;12.32;2.25;;;;;;;;;;5028757;28;20098;-71
2022/10/11 03:17:24;;;;;;;17.85;2.85;;;;;;;;;;5051848;28;20037;-72
2022/10/11 03:19:50;;;;;;;12.25;2.58;;;;;;;;;;5051739;28;20548;-71
2022/10/11 03:22:16;;;;;;;16.25;1.98;;;;;;;;;;5051430;28;20533;-71
2022/10/11 03:24:42;;;;;;;16.17;2.88;;;;;;;;;;5051643;28;20084;-71
2022/10/11 03:27:08;;;;;;;16.88;2.28;;;;;;;;;;5052042;28;20045;-72
2022/10/11 03:29:34;;;;;;;18.55;2.83;;;;;;;;;;5051783;28;20573;-72
2022/10/11 03:32:00;;;;;;;19.98;2.60;;;;;;;;;;5050498;28;20247;-71
2022/10/11 03:34:26;;;;;;;19.42;2.78;;;;;;;;;;5051922;28;20391;-71
2022/10/11 03:36:52;;;;;;;12.50;2.20;;;;;;;;;;5051854;28;20084;-71
2022/10/11 03:39:18;;;;;;;15.82;2.45;;;;;;;;;;5051832;28;20045;-71
2022/10/11 03:41:44;;;;;;;16.45;2.28;;;;;;;;;;5051682;28;20054;-71
2022/10/11 03:44:10;;;;;;;17.10;2.35;;;;;;;;;;5052758;28;20059;-71
2022/10/11 03:46:36;;;;;;;11.80;2.35;;;;;;;;;;5049580;28;20499;-72
2022/10/11 03:49:02;;;;;;;17.55;2.70;;;;;;;;;;5050271;28;20110;-71
2022/10/11 03:51:28;;;;;;;10.43;2.10;;;;;;;;;;5048062;28;20068;-72
2022/10/11 03:53:54;;;;;;;12.38;2.63;;;;;;;;;;5041691;28;20126;-72
2022/10/11 03:56:20;;;;;;;16.05;3.60;;;;;;;;;;5048930;28;20048;-71
2022/10/11 03:58:46;;;;;;;18.20;3.20;;;;;;;;;;5051256;28;20049;-72
2022/10/11 04:01:12;;;;;;;19.02;2.63;;;;;;;;;;5033075;28;20462;-72
2022/10/11 04:03:38;;;;;;;16.65;2.85;;;;;;;;;;5051255;28;20048;-72
2022/10/11 04:06:04;;;;;;;21.27;2.70;;;;;;;;;;5049480;28;20049;-71
2022/10/11 04:08:30;;;;;;;13.93;2.00;;;;;;;;;;5052328;28;20041;-71
2022/10/11 04:10:56;;;;;;;14.80;2.17;;;;;;;;;;5048440;28;21392;-71
2022/10/11 04:13:22;;;;;;;15.18;2.50;;;;;;;;;;5048293;28;20380;-71
2022/10/11 04:15:48;;;;;;;16.85;2.72;;;;;;;;;;5051636;28;20109;-72
2022/10/11 04:18:14;;;;;;;14.48;2.25;;;;;;;;;;5048570;28;20419;-71
2022/10/11 04:20:40;;;;;;;11.43;2.28;;;;;;;;;;5048277;28;20049;-72
2022/10/11 04:23:08;;;;;;;17.63;2.75;;;;;;;;;;5051312;28;20045;-71
2022/10/11 04:25:37;;;;;;;11.98;2.35;;;;;;;;;;5050305;28;20041;-71
2022/10/11 04:28:03;;;;;;;13.70;2.53;;;;;;;;;;5050389;28;20057;-71
2022/10/11 04:30:29;;;;;;;18.80;2.72;;;;;;;;;;5051126;28;20047;-71
2022/10/11 04:32:55;;;;;;;21.25;2.90;;;;;;;;;;5050282;28;20053;-71
2022/10/11 04:35:21;;;;;;;17.73;2.60;;;;;;;;;;5044037;28;20045;-72
2022/10/11 04:37:47;;;;;;;15.05;2.60;;;;;;;;;;5049819;28;20084;-71
2022/10/11 04:40:13;;;;;;;12.38;2.08;;;;;;;;;;5051663;28;20080;-72
2022/10/11 04:42:39;;;;;;;14.38;2.33;;;;;;;;;;5052167;28;20388;-72
2022/10/11 04:45:06;;;;;;;13.38;2.13;;;;;;;;;;5051182;28;20037;-71
2022/10/11 04:47:32;;;;;;;16.45;2.53;;;;;;;;;;5049615;28;20048;-72
2022/10/11 04:49:58;;;;;;;12.70;2.33;;;;;;;;;;5050951;28;20041;-71
2022/10/11 04:52:24;;;;;;;17.77;2.50;;;;;;;;;;5051005;28;20102;-71
2022/10/11 04:54:50;;;;;;;12.63;2.28;;;;;;;;;;5049343;28;20048;-71
2022/10/11 04:57:16;;;;;;;13.82;2.50;;;;;;;;;;5049496;28;20037;-71
2022/10/11 04:59:42;;;;;;;17.13;2.80;;;;;;;;;;5048295;28;20076;-73
2022/10/11 05:02:08;;;;;;;13.23;2.03;;;;;;;;;;5050480;28;20041;-71
2022/10/11 05:04:33;;;;;;;15.70;2.78;;;;;;;;;;5051112;28;20063;-71
2022/10/11 05:06:59;;;;;;;18.33;2.88;;;;;;;;;;5064081;28;20041;-72
2022/10/11 05:09:25;;;;;;;16.70;2.30;;;;;;;;;;5049744;28;20375;-71
2022/10/11 05:11:51;;;;;;;18.10;2.60;;;;;;;;;;5055733;28;20041;-71
2022/10/11 05:14:17;;;;;;;14.05;2.38;;;;;;;;;;5053400;28;20036;-71
2022/10/11 05:16:43;;;;;;;16.38;2.78;;;;;;;;;;5054184;28;20406;-71
2022/10/11 05:19:10;;;;;;;13.73;2.30;;;;;;;;;;5051237;28;20083;-71
2022/10/11 05:21:35;;;;;;;18.83;2.50;;;;;;;;;;5053061;28;20045;-71
2022/10/11 05:24:01;;;;;;;15.50;2.63;;;;;;;;;;5055001;28;20040;-71
2022/10/11 05:26:28;;;;;;;15.57;3.00;;;;;;;;;;5054365;28;20045;-71
2022/10/11 05:28:54;;;;;;;16.80;3.67;;;;;;;;;;5031852;28;20044;-72
2022/10/11 05:31:20;;;;;;;15.35;3.10;;;;;;;;;;5050805;28;20083;-72
2022/10/11 05:33:46;;;;;;;16.80;3.05;;;;;;;;;;5055010;28;20052;-72
2022/10/11 05:36:12;;;;;;;15.50;3.00;;;;;;;;;;5052666;28;20045;-71
2022/10/11 05:38:38;;;;;;;19.15;4.93;;;;;;;;;;5052823;28;20044;-71
2022/10/11 05:41:05;;;;;;;14.18;3.92;;;;;;;;;;5051758;28;20048;-72
2022/10/11 05:43:32;;;;;;;14.40;3.17;;;;;;;;;;5049820;28;20059;-72
2022/10/11 05:45:59;;;;;;;16.85;3.08;;;;;;;;;;5050067;28;20099;-72
2022/10/11 05:48:25;;;;;;;15.55;2.90;;;;;;;;;;5053180;28;20036;-72
2022/10/11 05:50:51;;;;;;;11.90;2.65;;;;;;;;;;5052266;28;20152;-72
2022/10/11 05:53:17;;;;;;;17.15;3.58;;;;;;;;;;5035768;28;20144;-72
2022/10/11 05:55:43;;;;;;;21.30;4.60;;;;;;;;;;5054183;28;20048;-72
2022/10/11 05:58:11;;;;;;;21.80;5.15;;;;;;;;;;5054301;28;20041;-72
2022/10/11 06:00:37;;;;;;;20.27;5.95;;;;;;;;;;5052367;28;20048;-72
2022/10/11 06:03:05;;;;;;;22.85;6.45;;;;;;;;;;5052827;28;20414;-72
2022/10/11 06:05:31;;;;;;;21.15;4.07;;;;;;;;;;5054137;28;20447;-72
2022/10/11 06:07:57;;;;;;;18.05;3.30;;;;;;;;;;5054822;28;20037;-72
2022/10/11 06:10:23;;;;;;;15.15;3.80;;;;;;;;;;5053113;28;20094;-72
2022/10/11 06:12:49;;;;;;;16.80;4.05;;;;;;;;;;5053914;28;20049;-72
2022/10/11 06:15:15;;;;;;;15.95;3.80;;;;;;;;;;5050011;28;20049;-72
2022/10/11 06:17:42;;;;;;;17.52;3.42;;;;;;;;;;5024505;28;20487;-72
2022/10/11 06:20:08;;;;;;;13.35;4.10;;;;;;;;;;5051007;28;20059;-72
2022/10/11 06:22:34;;;;;;;12.95;3.38;;;;;;;;;;5046582;28;20049;-72
2022/10/11 06:25:00;;;;;;;16.73;3.33;;;;;;;;;;5048128;28;20135;-72
2022/10/11 06:27:26;;;;;;;11.50;2.88;;;;;;;;;;5048008;28;20043;-72
2022/10/11 06:29:52;;;;;;;15.20;3.10;;;;;;;;;;5052732;28;20052;-72
2022/10/11 06:32:18;;;;;;;13.73;3.00;;;;;;;;;;5049521;28;20541;-72
2022/10/11 06:34:44;;;;;;;16.77;3.03;;;;;;;;;;5068137;28;20055;-72
2022/10/11 06:37:10;;;;;;;12.63;2.60;;;;;;;;;;5074119;28;20050;-72
2022/10/11 06:39:36;;;;;;;14.10;2.85;;;;;;;;;;5074004;28;20040;-72
2022/10/11 06:42:02;;;;;;;14.82;3.10;;;;;;;;;;5027126;28;20120;-72
2022/10/11 06:44:28;;;;;;;12.55;2.67;;;;;;;;;;5050204;28;20044;-72
2022/10/11 06:46:54;;;;;;;15.85;2.92;;;;;;;;;;5049549;28;20415;-72
2022/10/11 06:49:20;;;;;;;12.77;2.83;;;;;;;;;;5038457;28;20047;-72
2022/10/11 06:51:46;;;;;;;12.98;3.88;;;;;;;;;;5045218;28;20120;-72
2022/10/11 06:54:12;;;;;;;17.38;5.68;;;;;;;;;;5048077;28;20128;-72
2022/10/11 06:56:39;;;;;;;18.52;5.45;;;;;;;;;;5035687;28;20124;-71
2022/10/11 06:59:05;;;;;;;21.38;6.15;;;;;;;;;;5040805;28;20124;-72
2022/10/11 07:01:32;;;;;;;16.75;5.45;;;;;;;;;;5051893;28;20056;-72
2022/10/11 07:04:00;;;;;;;17.60;6.07;;;;;;;;;;5052414;28;20487;-72
2022/10/11 07:06:27;;;;;;;16.48;6.15;;;;;;;;;;5045165;28;20045;-72
2022/10/11 07:08:54;;;;;;;16.45;5.10;;;;;;;;;;5043478;28;20037;-72
2022/10/11 07:11:21;;;;;;;22.08;7.75;;;;;;;;;;5043778;28;20048;-72
2022/10/11 07:13:51;;;;;;;20.55;6.40;;;;;;;;;;5052767;28;20052;-72
2022/10/11 07:16:18;;;;;;;17.05;4.65;;;;;;;;;;5052145;28;20053;-72
2022/10/11 07:18:44;;;;;;;11.40;3.50;;;;;;;;;;5051599;28;20041;-72
2022/10/11 07:21:11;;;;;;;11.95;3.50;;;;;;;;;;5053361;28;20124;-70
2022/10/11 07:23:38;;;;;;;13.30;3.33;;;;;;;;;;5051371;28;20041;-71
2022/10/11 07:26:05;;;;;;;15.45;3.83;;;;;;;;;;5056193;28;20037;-71
2022/10/11 07:28:33;;;;;;;11.73;2.85;;;;;;;;;;5032372;28;20083;-71
2022/10/11 07:31:03;;;;;;;14.77;3.35;;;;;;;;;;5051994;28;20045;-71
2022/10/11 07:33:29;;;;;;;13.07;2.92;;;;;;;;;;5058115;28;20048;-70
2022/10/11 07:35:58;;;;;;;15.68;3.20;;;;;;;;;;5053419;28;20049;-72
2022/10/11 07:38:24;;;;;;;12.45;2.85;;;;;;;;;;5052372;28;20075;-71
2022/10/11 07:40:50;;;;;;;10.88;2.90;;;;;;;;;;5051259;28;20067;-72
2022/10/11 07:43:16;;;;;;;13.55;3.20;;;;;;;;;;5050713;28;20510;-72
2022/10/11 07:45:49;;;;;;;17.90;3.05;;;;;;;;;;5052908;28;20123;-72
2022/10/11 07:48:15;;;;;;;11.75;2.90;;;;;;;;;;5052742;28;20045;-72
2022/10/11 07:50:41;;;;;;;13.77;2.95;;;;;;;;;;5031227;28;20145;-72
2022/10/11 07:53:07;;;;;;;12.98;2.80;;;;;;;;;;5042158;28;20530;-72
2022/10/11 07:55:38;;;;;;;15.38;3.05;;;;;;;;;;5054518;28;20086;-72
2022/10/11 07:58:04;;;;;;;15.25;3.00;;;;;;;;;;5071474;28;20056;-72
2022/10/11 08:00:30;;;;;;;12.60;2.67;;;;;;;;;;5051215;28;20520;-72
2022/10/11 08:02:56;;;;;;;13.00;3.05;;;;;;;;;;5051739;28;20120;-72
2022/10/11 08:05:22;;;;;;;14.07;3.08;;;;;;;;;;5052452;28;20053;-72
2022/10/11 08:07:48;;;;;;;11.55;2.70;;;;;;;;;;5047756;28;20048;-72
2022/10/11 08:10:14;;;;;;;16.42;3.38;;;;;;;;;;5051775;28;20120;-72
2022/10/11 08:12:40;;;;;;;14.02;2.85;;;;;;;;;;5051847;28;20059;-72
2022/10/11 08:15:07;;;;;;;12.88;2.97;;;;;;;;;;5034386;28;20041;-72
2022/10/11 08:17:33;;;;;;;9.90;2.20;;;;;;;;;;5050534;28;20076;-72
2022/10/11 08:19:59;;;;;;;15.55;2.80;;;;;;;;;;5051085;28;20037;-72
2022/10/11 08:22:25;;;;;;;14.10;2.85;;;;;;;;;;5056746;28;20048;-71
2022/10/11 08:24:51;;;;;;;13.48;2.60;;;;;;;;;;5050629;28;20167;-72
2022/10/11 08:27:17;;;;;;;15.00;2.63;;;;;;;;;;5051983;28;20118;-72
2022/10/11 08:29:43;;;;;;;12.45;3.10;;;;;;;;;;5033405;28;20483;-72
2022/10/11 08:32:10;;;;;;;15.38;3.05;;;;;;;;;;5052226;28;20107;-72
2022/10/11 08:34:37;;;;;;;11.50;2.60;;;;;;;;;;5046796;28;20144;-72
2022/10/11 08:37:03;;;;;;;12.27;2.63;;;;;;;;;;5040610;28;20513;-72
2022/10/11 08:39:29;;;;;;;15.20;2.95;;;;;;;;;;5051211;28;20052;-72
2022/10/11 08:41:59;;;;;;;16.55;2.70;;;;;;;;;;5014015;28;20132;-72
2022/10/11 08:44:38;;;;;;;14.43;2.22;;;;;;;;;;5035599;28;20071;-72
2022/10/11 08:47:09;;;;;;;11.85;2.60;;;;;;;;;;5049289;28;20479;-71
2022/10/11 08:49:35;;;;;;;11.90;2.47;;;;;;;;;;5057712;28;20048;-72
2022/10/11 08:52:03;;;;;;;12.25;2.85;;;;;;;;;;5057983;28;20605;-73
2022/10/11 08:54:51;;;;;;;13.00;2.72;;;;;;;;;;5057172;28;20040;-72
2022/10/11 08:57:20;;;;;;;14.75;2.90;;;;;;;;;;5051284;28;20033;-70
2022/10/11 08:59:46;;;;;;;15.23;3.33;;;;;;;;;;5047717;28;20106;-74
2022/10/11 09:02:12;;;;;;;13.63;2.78;;;;;;;;;;5057816;28;20499;-74
2022/10/11 09:04:38;;;;;;;13.73;2.55;;;;;;;;;;5056283;28;20107;-72
2022/10/11 09:07:04;;;;;;;12.70;2.53;;;;;;;;;;5068289;28;20413;-71
2022/10/11 09:09:49;;;;;;;16.02;3.67;;;;;;;;;;5034330;28;20040;-72
2022/10/11 09:12:30;;;;;;;12.13;4.15;;;;;;;;;;5076092;28;20072;-72
2022/10/11 09:15:23;;;;;;;16.00;3.97;;;;;;;;;;5055339;28;20086;-71
2022/10/11 09:17:49;;;;;;;17.13;3.28;;;;;;;;;;5038837;28;20053;-72
2022/10/11 09:20:15;;;;;;;13.63;3.03;;;;;;;;;;5057337;28;20041;-71
2022/10/11 09:22:50;;;;;;;13.88;3.00;;;;;;;;;;5056436;28;20040;-71
2022/10/11 09:25:24;;;;;;;11.48;2.35;;;;;;;;;;5056322;28;20052;-71
2022/10/11 09:28:09;;;;;;;14.55;2.60;;;;;;;;;;5057256;28;20400;-71
2022/10/11 09:30:37;;;;;;;13.98;2.35;;;;;;;;;;5056170;28;20041;-72
2022/10/11 09:33:09;;;;;;;13.48;2.45;;;;;;;;;;5037703;28;20442;-71
2022/10/11 09:35:40;;;;;;;9.68;2.17;;;;;;;;;;5048069;28;20100;-72
2022/10/11 09:38:06;;;;;;;13.05;2.38;;;;;;;;;;5056492;28;20045;-72
2022/10/11 09:40:32;;;;;;;14.15;2.60;;;;;;;;;;5059050;28;20043;-72
2022/10/11 09:42:58;;;;;;;11.32;2.65;;;;;;;;;;5055945;28;20159;-72
2022/10/11 09:45:24;;;;;;;12.68;2.28;;;;;;;;;;5056639;28;20056;-72
2022/10/11 09:47:52;;;;;;;12.80;2.50;;;;;;;;;;5055737;28;20045;-72
2022/10/11 09:50:20;;;;;;;16.42;2.40;;;;;;;;;;5057381;28;20037;-72
2022/10/11 09:52:50;;;;;;;11.27;2.38;;;;;;;;;;5052264;28;20064;-72
2022/10/11 09:55:30;;;;;;;10.73;2.25;;;;;;;;;;5057489;28;20202;-72
2022/10/11 09:57:56;;;;;;;14.70;2.35;;;;;;;;;;5053800;28;20041;-76
2022/10/11 10:00:24;;;;;;;19.55;2.50;;;;;;;;;;5053169;28;20060;-73
2022/10/11 10:02:57;;;;;;;14.65;2.53;;;;;;;;;;5054201;28;20052;-72
2022/10/11 10:05:24;;;;;;;9.43;2.35;;;;;;;;;;5035136;28;20395;-74
2022/10/11 10:07:58;;;;;;;13.73;2.13;;;;;;;;;;5062379;28;20043;-74
2022/10/11 10:10:33;;;;;;;12.10;2.72;;;;;;;;;;5074102;28;20556;-75
2022/10/11 10:13:00;;;;;;;12.80;2.45;;;;;;;;;;5074167;28;20044;-71
2022/10/11 10:15:31;;;;;;;12.57;2.60;;;;;;;;;;5019824;28;20041;-78
2022/10/11 10:17:57;;;;;;;12.32;2.40;;;;;;;;;;5053731;28;20110;-73
2022/10/11 10:20:32;;;;;;;13.10;2.65;;;;;;;;;;5052379;28;20049;-73
2022/10/11 10:22:59;;;;;;;10.82;2.10;;;;;;;;;;5057818;28;20045;-73
2022/10/11 10:25:30;;;;;;;12.63;2.35;;;;;;;;;;5053511;28;20490;-73
2022/10/11 10:27:58;;;;;;;14.07;2.30;;;;;;;;;;5035703;28;20107;-73
2022/10/11 10:30:25;;;;;;;11.10;2.38;;;;;;;;;;5034761;28;20040;-73
2022/10/11 10:32:51;;;;;;;17.85;3.00;;;;;;;;;;5053131;28;20098;-74
2022/10/11 10:35:26;;;;;;;11.77;3.10;;;;;;;;;;5052516;28;20061;-74
2022/10/11 10:38:10;;;;;;;12.38;2.85;;;;;;;;;;5074046;28;20088;-74
2022/10/11 10:40:36;;;;;;;15.00;2.95;;;;;;;;;;5073966;28;20413;-74
2022/10/11 10:43:03;;;;;;;15.68;2.60;;;;;;;;;;5073887;28;20036;-74
2022/10/11 10:45:36;;;;;;;10.93;2.30;;;;;;;;;;5056786;28;20487;-73
2022/10/11 10:48:21;;;;;;;14.27;2.63;;;;;;;;;;5053752;28;20049;-74
2022/10/11 10:50:49;;;;;;;13.95;2.78;;;;;;;;;;5034820;28;20379;-74
2022/10/11 10:53:37;;;;;;;14.88;2.70;;;;;;;;;;5053430;28;20410;-72
2022/10/11 10:56:15;;;;;;;16.77;3.25;;;;;;;;;;5050814;28;20049;-73
2022/10/11 10:59:05;;;;;;;18.42;2.83;;;;;;;;;;5046049;28;20129;-73
2022/10/11 11:01:37;;;;;;;14.15;2.55;;;;;;;;;;4989250;28;20102;-73
2022/10/11 11:04:06;;;;;;;17.92;3.00;;;;;;;;;;4991492;28;20097;-74
2022/10/11 11:06:37;;;;;;;15.75;3.00;;;;;;;;;;4990131;28;20456;-74
2022/10/11 11:09:05;;;;;;;18.08;4.53;;;;;;;;;;4991776;28;20069;-74
2022/10/11 11:11:49;;;;;;;14.75;2.90;;;;;;;;;;4991919;28;20428;-74
2022/10/11 11:14:18;;;;;;;16.38;4.18;;;;;;;;;;4991679;28;20054;-74
2022/10/11 11:16:50;;;;;;;16.08;4.22;;;;;;;;;;4991330;28;20141;-74
2022/10/11 11:19:25;;;;;;;15.38;3.78;;;;;;;;;;4962958;28;20174;-73
2022/10/11 11:21:56;;;;;;;18.08;4.40;;;;;;;;;;4990602;28;20057;-74
2022/10/11 11:24:25;;;;;;;15.55;3.42;;;;;;;;;;5001699;28;20050;-74
2022/10/11 11:27:03;;;;;;;14.38;2.22;;;;;;;;;;5003963;28;20100;-73
2022/10/11 11:29:43;;;;;;;18.85;3.22;;;;;;;;;;5009372;28;20050;-73
2022/10/11 11:32:20;;;;;;;19.75;3.50;;;;;;;;;;4980252;28;20061;-73
2022/10/11 11:34:52;;;;;;;14.98;2.78;;;;;;;;;;4973546;28;20058;-73
2022/10/11 11:37:28;;;;;;;14.80;2.90;;;;;;;;;;4991827;28;20392;-72
2022/10/11 11:39:56;;;;;;;15.70;3.10;;;;;;;;;;5052657;28;20044;-73
2022/10/11 11:42:24;;;;;;;18.80;2.92;;;;;;;;;;5055112;28;20032;-73
2022/10/11 11:44:50;;;;;;;15.93;2.42;;;;;;;;;;5071409;28;20044;-73
2022/10/11 11:47:23;;;;;;;9.88;2.10;;;;;;;;;;5052158;28;20454;-73
2022/10/11 11:49:50;;;;;;;14.18;2.65;;;;;;;;;;5051888;28;20052;-73
2022/10/11 11:52:22;;;;;;;14.15;2.35;;;;;;;;;;5050604;28;20037;-73
2022/10/11 11:55:02;;;;;;;12.35;2.28;;;;;;;;;;5033789;28;20048;-74
2022/10/11 11:57:28;;;;;;;14.35;2.35;;;;;;;;;;5047114;28;20044;-73
2022/10/11 12:00:06;;;;;;;17.88;2.72;;;;;;;;;;5065099;28;20048;-74
2022/10/11 12:02:49;;;;;;;14.38;2.20;;;;;;;;;;5052519;28;20057;-73
2022/10/11 12:05:18;;;;;;;14.82;2.45;;;;;;;;;;5052659;28;20518;-74
2022/10/11 12:07:49;;;;;;;13.35;2.30;;;;;;;;;;5051508;28;20626;-74
2022/10/11 12:10:24;;;;;;;11.70;2.40;;;;;;;;;;5052230;28;20495;-74
2022/10/11 12:13:01;;;;;;;10.85;2.45;;;;;;;;;;5048961;28;20118;-74
2022/10/11 12:15:27;;;;;;;11.30;3.35;;;;;;;;;;5051415;28;20119;-74
2022/10/11 12:17:56;;;;;;;18.00;4.35;;;;;;;;;;5066626;28;20049;-75
2022/10/11 12:20:22;;;;;;;17.08;3.70;;;;;;;;;;5071185;28;20134;-73
2022/10/11 12:22:48;;;;;;;13.07;2.38;;;;;;;;;;5036676;28;20052;-74
2022/10/11 12:25:14;;;;;;;14.30;2.40;;;;;;;;;;5046117;28;20041;-74
2022/10/11 12:27:54;;;;;;;14.27;2.22;;;;;;;;;;5038718;28;20495;-74
2022/10/11 12:30:39;;;;;;;14.20;2.75;;;;;;;;;;5038803;28;20044;-74
2022/10/11 12:33:12;;;;;;;14.35;2.33;;;;;;;;;;5056895;28;20048;-74
2022/10/11 12:35:41;;;;;;;15.95;3.65;;;;;;;;;;5049939;28;20068;-74
2022/10/11 12:38:18;;;;;;;12.23;2.70;;;;;;;;;;5032765;28;20206;-73
2022/10/11 12:40:46;;;;;;;12.20;2.40;;;;;;;;;;5046329;28;20116;-74
2022/10/11 12:43:14;;;;;;;11.90;2.30;;;;;;;;;;5049126;28;20049;-74
2022/10/11 12:45:46;;;;;;;12.82;2.10;;;;;;;;;;5035813;28;20390;-74
2022/10/11 12:48:22;;;;;;;12.15;1.90;;;;;;;;;;5068139;28;20053;-74
2022/10/11 12:50:51;;;;;;;9.60;1.90;;;;;;;;;;5051077;28;20033;-74
2022/10/11 12:53:30;;;;;;;11.30;2.20;;;;;;;;;;5051685;28;20048;-74
2022/10/11 12:56:05;;;;;;;10.98;1.67;;;;;;;;;;5050603;28;20159;-74
2022/10/11 12:58:40;;;;;;;11.38;2.05;;;;;;;;;;5044178;28;20048;-74
2022/10/11 13:01:08;;;;;;;10.65;1.90;;;;;;;;;;5053647;28;20049;-74
2022/10/11 13:03:37;;;;;;;11.15;2.40;;;;;;;;;;5039737;28;20052;-74
2022/10/11 13:06:19;;;;;;;11.13;1.90;;;;;;;;;;5031869;28;20061;-74
2022/10/11 13:08:48;;;;;;;11.05;2.13;;;;;;;;;;5043987;28;20120;-74
2022/10/11 13:11:19;;;;;;;15.27;2.30;;;;;;;;;;5050640;28;20124;-74
2022/10/11 13:13:45;;;;;;;;;;;;;;;;;;5037462;28;20042;-74
2022/10/11 13:16:13;;;;;;;12.90;2.08;;;;;;;;;;5047958;28;20282;-74
2022/10/11 13:18:43;;;;;;;13.18;2.45;;;;;;;;;;5031934;28;20045;-74
2022/10/11 13:21:16;;;;;;;11.13;1.80;;;;;;;;;;5050760;28;20126;-74
2022/10/11 13:23:43;;;;;;;11.00;1.92;;;;;;;;;;5051498;28;20048;-74
2022/10/11 13:26:09;;;;;;;14.32;2.10;;;;;;;;;;5051562;28;20506;-74
2022/10/11 13:28:35;;;;;;;11.48;2.58;;;;;;;;;;5044281;28;20048;-74
2022/10/11 13:31:01;;;;;;;9.23;2.10;;;;;;;;;;5058419;28;20071;-74
2022/10/11 13:33:35;;;;;;;12.13;2.05;;;;;;;;;;5075313;28;20049;-74
2022/10/11 13:36:02;;;;;;;11.15;1.95;;;;;;;;;;5057317;28;20048;-74
2022/10/11 13:38:30;;;;;;;13.02;2.13;;;;;;;;;;5064231;28;20049;-74
2022/10/11 13:40:58;;;;;;;11.13;1.90;;;;;;;;;;5054511;28;20049;-74
2022/10/11 13:43:28;;;;;;;13.95;3.03;;;;;;;;;;5055037;28;20045;-75
2022/10/11 13:45:54;;;;;;;10.63;2.13;;;;;;;;;;5067892;28;20068;-74
2022/10/11 13:48:20;;;;;;;11.32;2.22;;;;;;;;;;5065307;28;20047;-74
2022/10/11 13:51:04;;;;;;;13.32;2.42;;;;;;;;;;5037041;28;20430;-74
2022/10/11 13:53:30;;;;;;;13.75;2.20;;;;;;;;;;5053372;28;20110;-74
2022/10/11 13:56:01;;;;;;;12.02;2.50;;;;;;;;;;5036485;28;20053;-75
2022/10/11 13:58:30;;;;;;;12.68;2.25;;;;;;;;;;5051071;28;20483;-74
2022/10/11 14:00:57;;;;;;;12.70;2.13;;;;;;;;;;5048793;28;20132;-74
2022/10/11 14:03:27;;;;;;;14.18;2.20;;;;;;;;;;5048788;28;20090;-74
2022/10/11 14:05:58;;;;;;;14.98;2.40;;;;;;;;;;5053047;28;20052;-74
2022/10/11 14:08:24;;;;;;;12.68;2.10;;;;;;;;;;5037357;28;20052;-74
2022/10/11 14:10:51;;;;;;;12.10;2.25;;;;;;;;;;5052167;28;20056;-74
2022/10/11 14:13:37;;;;;;;14.70;2.45;;;;;;;;;;5052068;28;20090;-74
2022/10/11 14:16:07;;;;;;;14.43;2.40;;;;;;;;;;5053382;28;20094;-74
2022/10/11 14:18:36;;;;;;;13.13;2.45;;;;;;;;;;5053523;28;20406;-74
2022/10/11 14:21:21;;;;;;;14.38;2.30;;;;;;;;;;5040971;28;20406;-74
2022/10/11 14:23:49;;;;;;;15.18;2.63;;;;;;;;;;5047657;28;20041;-74
2022/10/11 14:26:16;;;;;;;14.77;2.75;;;;;;;;;;5036494;28;20076;-74
2022/10/11 14:28:42;;;;;;;13.07;2.63;;;;;;;;;;5053272;28;20059;-74
2022/10/11 14:31:09;;;;;;;14.00;2.72;;;;;;;;;;5054259;28;20045;-74
2022/10/11 14:33:35;;;;;;;13.57;2.85;;;;;;;;;;5021860;28;20076;-74
2022/10/11 14:36:01;;;;;;;12.43;2.78;;;;;;;;;;5049242;28;20406;-74
2022/10/11 14:38:28;;;;;;;10.63;2.22;;;;;;;;;;5049512;28;20041;-74
2022/10/11 14:40:54;;;;;;;12.15;2.22;;;;;;;;;;5031684;28;20049;-74
2022/10/11 14:43:20;;;;;;;13.55;2.20;;;;;;;;;;5033483;28;20040;-74